createdAt,value
2022-08-28T00:00:37.016Z,98218.25
2022-08-28T00:03:04.336Z,98228.44
2022-08-28T00:05:32.815Z,98217.16
2022-08-28T00:08:00.196Z,98228.81
2022-08-28T00:10:27.411Z,98224.16
2022-08-28T00:12:58.193Z,98231.09
2022-08-28T00:15:31.941Z,98231.19
2022-08-28T00:17:58.803Z,98235.38
2022-08-28T00:20:26.855Z,98228.19
2022-08-28T00:22:55.482Z,98232.44
2022-08-28T00:25:24.658Z,98226.41
2022-08-28T00:27:53.025Z,98234.09
2022-08-28T00:30:25.588Z,98232.91
2022-08-28T00:32:53.648Z,98235.91
2022-08-28T00:35:20.787Z,98240.09
2022-08-28T00:37:48.228Z,98237.91
2022-08-28T00:40:18.601Z,98235.00
2022-08-28T00:42:55.371Z,98233.38
2022-08-28T00:45:23.497Z,98228.31
2022-08-28T00:47:50.426Z,98219.69
2022-08-28T00:50:19.404Z,98223.78
2022-08-28T00:52:48.398Z,98224.84
2022-08-28T00:55:18.640Z,98224.41
2022-08-28T00:57:49.246Z,98225.59
2022-08-28T01:00:32.728Z,98226.34
2022-08-28T01:02:59.885Z,98224.97
2022-08-28T01:05:28.723Z,98212.94
2022-08-28T01:07:57.497Z,98217.88
2022-08-28T01:10:25.918Z,98223.50
2022-08-28T01:12:54.758Z,98221.63
2022-08-28T01:15:24.942Z,98222.72
2022-08-28T01:17:56.455Z,98222.09
2022-08-28T01:20:26.064Z,98225.34
2022-08-28T01:23:01.841Z,98225.69
2022-08-28T01:25:31.903Z,98232.69
2022-08-28T01:27:58.818Z,98228.00
2022-08-28T01:30:25.769Z,98233.38
2022-08-28T01:32:55.504Z,98222.78
2022-08-28T01:35:29.464Z,98216.81
2022-08-28T01:37:56.192Z,98223.63
2022-08-28T01:40:30.402Z,98222.00
2022-08-28T01:43:09.235Z,98222.72
2022-08-28T01:45:37.710Z,98222.81
2022-08-28T01:48:06.453Z,98222.09
2022-08-28T01:50:33.788Z,98227.72
2022-08-28T01:53:01.215Z,98215.09
2022-08-28T01:55:28.160Z,98221.88
2022-08-28T01:57:56.208Z,98222.34
2022-08-28T02:00:26.933Z,98225.72
2022-08-28T02:02:56.304Z,98217.50
2022-08-28T02:05:25.120Z,98218.69
2022-08-28T02:07:52.532Z,98229.72
2022-08-28T02:10:20.184Z,98227.88
2022-08-28T02:12:46.717Z,98229.81
2022-08-28T02:15:13.258Z,98225.34
2022-08-28T02:17:39.924Z,98230.34
2022-08-28T02:20:07.451Z,98228.19
2022-08-28T02:22:35.439Z,98236.28
2022-08-28T02:25:03.406Z,98231.81
2022-08-28T02:27:30.977Z,98235.38
2022-08-28T02:29:58.853Z,98230.47
2022-08-28T02:32:26.353Z,98231.22
2022-08-28T02:34:54.029Z,98232.59
2022-08-28T02:37:21.685Z,98232.59
2022-08-28T02:39:48.388Z,98228.31
2022-08-28T02:42:15.762Z,98233.06
2022-08-28T02:44:42.914Z,98237.44
2022-08-28T02:47:09.533Z,98227.72
2022-08-28T02:49:36.518Z,98239.00
2022-08-28T02:52:03.808Z,98234.91
2022-08-28T02:54:31.017Z,98235.00
2022-08-28T02:56:58.573Z,98228.97
2022-08-28T02:59:25.680Z,98225.97
2022-08-28T03:01:52.910Z,98234.19
2022-08-28T03:04:19.616Z,98233.47
2022-08-28T03:06:46.221Z,98238.19
2022-08-28T03:09:12.797Z,98229.72
2022-08-28T03:11:41.366Z,98232.97
2022-08-28T03:14:08.236Z,98231.97
2022-08-28T03:16:34.959Z,98229.81
2022-08-28T03:19:01.612Z,98229.97
2022-08-28T03:21:28.204Z,98228.88
2022-08-28T03:23:54.949Z,98226.50
2022-08-28T03:26:21.860Z,98229.53
2022-08-28T03:28:51.215Z,98228.34
2022-08-28T03:31:20.929Z,98229.38
2022-08-28T03:33:48.116Z,98224.44
2022-08-28T03:36:18.836Z,98226.81
2022-08-28T03:38:45.438Z,98225.53
2022-08-28T03:41:13.305Z,98224.69
2022-08-28T03:43:40.133Z,98234.97
2022-08-28T03:46:07.492Z,98228.44
2022-08-28T03:48:36.746Z,98237.19
2022-08-28T03:51:13.587Z,98245.19
2022-08-28T03:53:42.535Z,98239.63
2022-08-28T03:56:16.117Z,98241.63
2022-08-28T03:58:43.137Z,98241.72
2022-08-28T04:01:10.079Z,98234.25
2022-08-28T04:03:36.832Z,98245.19
2022-08-28T04:06:03.575Z,98240.09
2022-08-28T04:08:30.186Z,98235.72
2022-08-28T04:10:57.017Z,98241.53
2022-08-28T04:13:23.654Z,98241.88
2022-08-28T04:15:58.968Z,98241.72
2022-08-28T04:18:27.056Z,98237.53
2022-08-28T04:21:02.440Z,98245.38
2022-08-28T04:23:29.783Z,98246.75
2022-08-28T04:25:56.391Z,98234.09
2022-08-28T04:28:24.152Z,98240.97
2022-08-28T04:30:55.075Z,98244.28
2022-08-28T04:33:22.797Z,98243.44
2022-08-28T04:35:49.407Z,98247.28
2022-08-28T04:38:16.271Z,98251.00
2022-08-28T04:40:43.173Z,98248.38
2022-08-28T04:43:10.068Z,98244.63
2022-08-28T04:45:41.087Z,98250.81
2022-08-28T04:48:10.463Z,98242.81
2022-08-28T04:50:44.491Z,98246.91
2022-08-28T04:53:11.376Z,98246.09
2022-08-28T04:55:53.866Z,98251.00
2022-08-28T04:58:23.798Z,98250.09
2022-08-28T05:00:51.853Z,98249.06
2022-08-28T05:03:18.403Z,98254.00
2022-08-28T05:05:53.253Z,98256.22
2022-08-28T05:08:23.348Z,98248.47
2022-08-28T05:10:50.816Z,98259.56
2022-08-28T05:13:20.982Z,98253.19
2022-08-28T05:15:50.227Z,98259.19
2022-08-28T05:18:19.979Z,98263.38
2022-08-28T05:20:48.177Z,98263.72
2022-08-28T05:23:15.822Z,98266.97
2022-08-28T05:25:44.599Z,98262.44
2022-08-28T05:28:12.531Z,98267.22
2022-08-28T05:30:41.088Z,98264.38
2022-08-28T05:33:08.783Z,98271.94
2022-08-28T05:35:38.352Z,98269.00
2022-08-28T05:38:06.305Z,98276.56
2022-08-28T05:40:33.267Z,98278.00
2022-08-28T05:42:59.900Z,98270.25
2022-08-28T05:45:26.556Z,98272.41
2022-08-28T05:47:53.413Z,98270.22
2022-08-28T05:50:20.153Z,98270.63
2022-08-28T05:52:47.397Z,98276.59
2022-08-28T05:55:14.091Z,98282.59
2022-08-28T05:57:41.031Z,98280.19
2022-08-28T06:00:13.638Z,98276.44
2022-08-28T06:02:41.913Z,98279.03
2022-08-28T06:05:09.335Z,98280.19
2022-08-28T06:07:41.016Z,98279.31
2022-08-28T06:10:10.446Z,98291.47
2022-08-28T06:12:37.932Z,98293.19
2022-08-28T06:15:05.595Z,98294.66
2022-08-28T06:17:32.185Z,98294.94
2022-08-28T06:19:58.779Z,98291.75
2022-08-28T06:22:25.358Z,98293.94
2022-08-28T06:24:51.983Z,98291.66
2022-08-28T06:27:18.563Z,98291.91
2022-08-28T06:29:45.748Z,98285.84
2022-08-28T06:32:12.410Z,98293.50
2022-08-28T06:34:39.384Z,98296.25
2022-08-28T06:37:06.166Z,98300.94
2022-08-28T06:39:33.075Z,98303.38
2022-08-28T06:42:02.239Z,98300.31
2022-08-28T06:44:28.906Z,98305.69
2022-08-28T06:46:55.615Z,98311.13
2022-08-28T06:49:22.485Z,98298.72
2022-08-28T06:51:49.710Z,98310.63
2022-08-28T06:54:22.151Z,98313.09
2022-08-28T06:56:49.433Z,98314.63
2022-08-28T06:59:16.153Z,98319.41
2022-08-28T07:01:42.797Z,98317.22
2022-08-28T07:04:11.696Z,98323.94
2022-08-28T07:06:43.140Z,98314.31
2022-08-28T07:09:13.732Z,98315.41
2022-08-28T07:11:41.306Z,98319.47
2022-08-28T07:14:07.910Z,98326.13
2022-08-28T07:16:40.507Z,98332.16
2022-08-28T07:19:08.602Z,98342.94
2022-08-28T07:21:39.270Z,98335.47
2022-08-28T07:24:07.114Z,98342.84
2022-08-28T07:26:35.577Z,98347.69
2022-08-28T07:29:10.159Z,98343.19
2022-08-28T07:31:40.699Z,98347.06
2022-08-28T07:34:07.765Z,98343.47
2022-08-28T07:36:35.006Z,98341.72
2022-08-28T07:39:01.616Z,98338.06
2022-08-28T07:41:30.340Z,98346.22
2022-08-28T07:44:16.403Z,98345.81
2022-08-28T07:46:44.437Z,98352.19
2022-08-28T07:49:11.836Z,98351.28
2022-08-28T07:51:38.610Z,98361.53
2022-08-28T07:54:05.384Z,98360.91
2022-08-28T07:56:33.071Z,98359.31
2022-08-28T07:59:01.151Z,98361.28
2022-08-28T08:01:29.677Z,98359.88
2022-08-28T08:04:01.304Z,98365.31
2022-08-28T08:06:33.794Z,98365.53
2022-08-28T08:09:01.747Z,98368.31
2022-08-28T08:11:28.312Z,98365.78
2022-08-28T08:14:03.887Z,98362.69
2022-08-28T08:16:34.932Z,98366.38
2022-08-28T08:19:02.671Z,98361.47
2022-08-28T08:21:30.471Z,98374.75
2022-08-28T08:23:58.214Z,98381.81
2022-08-28T08:26:27.966Z,98372.41
2022-08-28T08:28:54.695Z,98382.34
2022-08-28T08:31:27.406Z,98386.19
2022-08-28T08:34:01.975Z,98383.41
2022-08-28T08:36:29.929Z,98384.59
2022-08-28T08:38:59.349Z,98382.81
2022-08-28T08:41:31.151Z,98391.84
2022-08-28T08:44:48.334Z,98376.47
2022-08-28T08:47:27.178Z,98387.94
2022-08-28T08:50:09.402Z,98394.25
2022-08-28T08:52:41.835Z,98385.97
2022-08-28T08:55:31.420Z,98388.63
2022-08-28T08:58:05.520Z,98382.50
2022-08-28T09:00:36.979Z,98401.00
2022-08-28T09:03:15.649Z,98388.97
2022-08-28T09:05:48.775Z,98399.06
2022-08-28T09:08:21.563Z,98396.94
2022-08-28T09:10:55.751Z,98395.50
2022-08-28T09:13:48.834Z,98407.13
2022-08-28T09:16:31.683Z,98403.31
2022-08-28T09:18:59.277Z,98403.47
2022-08-28T09:21:32.739Z,98398.66
2022-08-28T09:24:05.606Z,98398.09
2022-08-28T09:26:33.900Z,98405.13
2022-08-28T09:29:16.296Z,98401.13
2022-08-28T09:31:44.047Z,98395.97
2022-08-28T09:34:22.755Z,98399.69
2022-08-28T09:36:50.208Z,98403.22
2022-08-28T09:39:18.138Z,98408.28
2022-08-28T09:42:33.805Z,98405.56
2022-08-28T09:45:20.997Z,98402.69
2022-08-28T09:47:58.249Z,98399.94
2022-08-28T09:50:41.678Z,98399.31
2022-08-28T09:53:14.107Z,98406.97
2022-08-28T09:55:59.416Z,98401.00
2022-08-28T09:58:40.783Z,98405.41
2022-08-28T10:01:25.625Z,98400.81
2022-08-28T10:04:08.505Z,98409.28
2022-08-28T10:06:37.042Z,98405.84
2022-08-28T10:09:16.553Z,98403.47
2022-08-28T10:12:05.011Z,98406.50
2022-08-28T10:15:05.285Z,98406.09
2022-08-28T10:17:58.709Z,98401.22
2022-08-28T10:20:37.387Z,98402.94
2022-08-28T10:23:24.516Z,98401.34
2022-08-28T10:26:09.549Z,98398.69
2022-08-28T10:28:45.297Z,98397.19
2022-08-28T10:31:31.676Z,98395.34
2022-08-28T10:34:22.446Z,98396.03
2022-08-28T10:37:00.864Z,98397.47
2022-08-28T10:39:45.999Z,98392.16
2022-08-28T10:42:12.810Z,98391.03
2022-08-28T10:44:49.881Z,98393.97
2022-08-28T10:47:18.789Z,98392.34
2022-08-28T10:49:47.373Z,98393.88
2022-08-28T10:52:22.887Z,98397.75
2022-08-28T10:54:57.686Z,98397.69
2022-08-28T10:57:39.670Z,98401.97
2022-08-28T11:00:14.723Z,98392.75
2022-08-28T11:02:46.386Z,98394.50
2022-08-28T11:05:13.523Z,98397.56
2022-08-28T11:07:44.851Z,98401.97
2022-08-28T11:10:29.799Z,98397.44
2022-08-28T11:12:56.499Z,98395.13
2022-08-28T11:15:36.438Z,98397.28
2022-08-28T11:18:15.809Z,98392.41
2022-08-28T11:20:44.565Z,98405.13
2022-08-28T11:23:23.726Z,98399.81
2022-08-28T11:25:58.750Z,98399.88
2022-08-28T11:28:25.641Z,98393.41
2022-08-28T11:30:58.263Z,98403.13
2022-08-28T11:33:42.492Z,98396.94
2022-08-28T11:36:29.931Z,98407.41
2022-08-28T11:38:57.515Z,98399.53
2022-08-28T11:41:38.936Z,98405.38
2022-08-28T11:44:14.613Z,98389.75
2022-08-28T11:46:47.908Z,98385.19
2022-08-28T11:49:26.433Z,98392.53
2022-08-28T11:52:01.979Z,98387.31
2022-08-28T11:55:02.422Z,98385.59
2022-08-28T11:57:55.220Z,98392.66
2022-08-28T12:00:28.870Z,98394.25
2022-08-28T12:03:09.189Z,98395.72
2022-08-28T12:05:39.356Z,98393.72
2022-08-28T12:08:06.008Z,98396.09
2022-08-28T12:10:32.501Z,98392.81
2022-08-28T12:13:07.388Z,98395.28
2022-08-28T12:15:34.115Z,98394.22
2022-08-28T12:18:22.440Z,98389.63
2022-08-28T12:20:52.115Z,98379.78
2022-08-28T12:23:41.704Z,98384.66
2022-08-28T12:26:22.814Z,98385.78
2022-08-28T12:29:01.825Z,98383.81
2022-08-28T12:32:10.001Z,98378.75
2022-08-28T12:34:45.758Z,98389.63
2022-08-28T12:37:31.252Z,98387.00
2022-08-28T12:40:19.381Z,98387.47
2022-08-28T12:42:53.166Z,98394.25
2022-08-28T12:45:36.365Z,98382.84
2022-08-28T12:48:08.659Z,98387.34
2022-08-28T12:50:38.197Z,98376.81
2022-08-28T12:53:12.469Z,98374.53
2022-08-28T12:55:40.236Z,98377.06
2022-08-28T12:58:27.092Z,98380.56
2022-08-28T13:00:54.973Z,98375.22
2022-08-28T13:03:22.252Z,98370.63
2022-08-28T13:05:56.574Z,98376.31
2022-08-28T13:08:23.782Z,98369.34
2022-08-28T13:10:51.507Z,98368.34
2022-08-28T13:13:36.727Z,98365.38
2022-08-28T13:16:07.439Z,98357.19
2022-08-28T13:18:43.014Z,98365.97
2022-08-28T13:21:33.213Z,98370.47
2022-08-28T13:24:21.141Z,98364.56
2022-08-28T13:26:50.331Z,98357.97
2022-08-28T13:29:19.969Z,98361.94
2022-08-28T13:31:59.708Z,98367.38
2022-08-28T13:34:34.535Z,98357.34
2022-08-28T13:37:14.843Z,98362.81
2022-08-28T13:39:47.020Z,98352.09
2022-08-28T13:42:16.366Z,98342.22
2022-08-28T13:44:49.229Z,98357.28
2022-08-28T13:47:16.758Z,98348.50
2022-08-28T13:49:43.816Z,98344.78
2022-08-28T13:52:10.608Z,98338.69
2022-08-28T13:54:38.089Z,98344.25
2022-08-28T13:57:09.296Z,98334.97
2022-08-28T13:59:35.949Z,98338.66
2022-08-28T14:02:23.999Z,98341.19
2022-08-28T14:04:50.727Z,98342.06
2022-08-28T14:07:17.631Z,98334.44
2022-08-28T14:09:44.262Z,98332.47
2022-08-28T14:12:11.414Z,98334.03
2022-08-28T14:14:40.190Z,98325.38
2022-08-28T14:17:08.063Z,98323.28
2022-08-28T14:19:34.726Z,98327.97
2022-08-28T14:22:01.379Z,98321.88
2022-08-28T14:24:29.341Z,98323.25
2022-08-28T14:26:56.084Z,98315.47
2022-08-28T14:29:22.735Z,98320.66
2022-08-28T14:31:49.430Z,98317.81
2022-08-28T14:34:19.260Z,98317.00
2022-08-28T14:36:46.723Z,98323.72
2022-08-28T14:39:13.540Z,98315.44
2022-08-28T14:41:46.117Z,98317.59
2022-08-28T14:44:15.942Z,98313.34
2022-08-28T14:46:44.245Z,98316.03
2022-08-28T14:49:13.330Z,98308.75
2022-08-28T14:51:41.471Z,98309.97
2022-08-28T14:54:09.889Z,98313.97
2022-08-28T14:56:36.666Z,98306.53
2022-08-28T14:59:05.853Z,98306.88
2022-08-28T15:01:40.426Z,98304.72
2022-08-28T15:04:10.405Z,98303.25
2022-08-28T15:06:37.103Z,98303.41
2022-08-28T15:09:04.119Z,98303.09
2022-08-28T15:11:31.024Z,98301.44
2022-08-28T15:13:58.499Z,98304.09
2022-08-28T15:16:30.519Z,98298.47
2022-08-28T15:18:58.374Z,98306.00
2022-08-28T15:21:32.604Z,98302.63
2022-08-28T15:24:00.766Z,98302.94
2022-08-28T15:26:28.421Z,98302.38
2022-08-28T15:28:55.952Z,98304.47
2022-08-28T15:31:24.631Z,98303.81
2022-08-28T15:33:52.062Z,98304.22
2022-08-28T15:36:19.730Z,98307.81
2022-08-28T15:39:04.909Z,98305.25
2022-08-28T15:41:31.756Z,98296.50
2022-08-28T15:44:01.435Z,98305.94
2022-08-28T15:46:33.709Z,98297.56
2022-08-28T15:49:05.391Z,98294.97
2022-08-28T15:51:36.056Z,98289.53
2022-08-28T15:54:02.732Z,98294.09
2022-08-28T15:56:29.377Z,98293.63
2022-08-28T15:58:56.080Z,98300.75
2022-08-28T16:01:22.820Z,98294.06
2022-08-28T16:03:49.890Z,98297.00
2022-08-28T16:06:19.959Z,98297.13
2022-08-28T16:08:49.044Z,98291.72
2022-08-28T16:11:21.036Z,98288.13
2022-08-28T16:13:48.302Z,98292.91
2022-08-28T16:16:15.474Z,98291.63
2022-08-28T16:18:43.855Z,98302.19
2022-08-28T16:21:15.754Z,98291.63
2022-08-28T16:23:44.181Z,98296.78
2022-08-28T16:26:14.126Z,98294.38
2022-08-28T16:28:41.946Z,98295.56
2022-08-28T16:31:11.182Z,98290.03
2022-08-28T16:33:48.334Z,98294.09
2022-08-28T16:36:23.711Z,98293.34
2022-08-28T16:39:00.375Z,98291.81
2022-08-28T16:41:32.821Z,98293.72
2022-08-28T16:44:00.248Z,98300.53
2022-08-28T16:46:27.545Z,98299.16
2022-08-28T16:48:55.237Z,98303.47
2022-08-28T16:51:33.119Z,98299.00
2022-08-28T16:54:04.009Z,98294.13
2022-08-28T16:56:31.625Z,98296.63
2022-08-28T16:58:59.645Z,98299.53
2022-08-28T17:01:32.241Z,98300.59
2022-08-28T17:04:01.032Z,98299.56
2022-08-28T17:06:31.451Z,98304.50
2022-08-28T17:08:59.670Z,98305.53
2022-08-28T17:11:28.807Z,98303.78
2022-08-28T17:13:57.473Z,98302.50
2022-08-28T17:16:26.337Z,98293.31
2022-08-28T17:18:55.862Z,98302.81
2022-08-28T17:21:44.876Z,98308.94
2022-08-28T17:24:22.533Z,98305.25
2022-08-28T17:26:51.770Z,98310.94
2022-08-28T17:29:19.776Z,98305.41
2022-08-28T17:31:48.189Z,98312.44
2022-08-28T17:34:15.660Z,98311.66
2022-08-28T17:36:50.676Z,98309.16
2022-08-28T17:39:25.633Z,98315.88
2022-08-28T17:41:53.661Z,98315.47
2022-08-28T17:44:21.627Z,98326.94
2022-08-28T17:46:49.019Z,98329.91
2022-08-28T17:49:20.372Z,98324.09
2022-08-28T17:51:49.777Z,98334.63
2022-08-28T17:54:21.385Z,98336.06
2022-08-28T17:56:50.397Z,98328.63
2022-08-28T17:59:18.778Z,98330.47
2022-08-28T18:01:47.843Z,98338.16
2022-08-28T18:04:21.611Z,98330.91
2022-08-28T18:06:57.886Z,98338.72
2022-08-28T18:09:26.648Z,98345.06
2022-08-28T18:11:56.381Z,98346.06
2022-08-28T18:14:24.431Z,98342.31
2022-08-28T18:16:51.826Z,98346.75
2022-08-28T18:19:19.763Z,98355.38
2022-08-28T18:21:46.393Z,98345.78
2022-08-28T18:24:13.196Z,98356.69
2022-08-28T18:26:41.416Z,98362.78
2022-08-28T18:29:08.046Z,98363.53
2022-08-28T18:31:34.961Z,98367.59
2022-08-28T18:34:01.869Z,98369.47
2022-08-28T18:36:29.392Z,98369.88
2022-08-28T18:38:56.187Z,98371.81
2022-08-28T18:41:26.938Z,98373.84
2022-08-28T18:44:09.378Z,98379.22
2022-08-28T18:46:36.313Z,98379.06
2022-08-28T18:49:03.813Z,98385.88
2022-08-28T18:51:32.318Z,98389.16
2022-08-28T18:54:00.956Z,98394.47
2022-08-28T18:56:29.569Z,98399.31
2022-08-28T18:58:59.116Z,98400.56
2022-08-28T19:01:25.888Z,98408.66
2022-08-28T19:03:54.126Z,98402.91
2022-08-28T19:06:20.856Z,98407.34
2022-08-28T19:08:47.606Z,98410.50
2022-08-28T19:11:14.777Z,98415.53
2022-08-28T19:13:41.786Z,98424.09
2022-08-28T19:16:08.745Z,98420.28
2022-08-28T19:18:36.245Z,98418.53
2022-08-28T19:21:08.834Z,98424.50
2022-08-28T19:23:37.173Z,98425.31
2022-08-28T19:26:05.580Z,98422.00
2022-08-28T19:28:33.677Z,98431.31
2022-08-28T19:31:00.348Z,98433.47
2022-08-28T19:33:27.410Z,98433.72
2022-08-28T19:35:55.254Z,98433.72
2022-08-28T19:38:22.976Z,98434.84
2022-08-28T19:40:50.138Z,98433.22
2022-08-28T19:43:17.243Z,98430.31
2022-08-28T19:45:45.070Z,98439.94
2022-08-28T19:48:12.318Z,98436.94
2022-08-28T19:50:39.445Z,98435.47
2022-08-28T19:53:06.787Z,98435.72
2022-08-28T19:55:33.801Z,98428.06
2022-08-28T19:58:04.160Z,98440.69
2022-08-28T20:00:33.148Z,98441.28
2022-08-28T20:03:00.221Z,98440.97
2022-08-28T20:05:27.298Z,98439.63
2022-08-28T20:07:54.353Z,98446.97
2022-08-28T20:10:21.522Z,98446.97
2022-08-28T20:12:48.941Z,98450.59
2022-08-28T20:15:16.330Z,98441.69
2022-08-28T20:17:49.338Z,98455.09
2022-08-28T20:20:19.275Z,98449.16
2022-08-28T20:22:46.015Z,98455.66
2022-08-28T20:25:13.341Z,98459.19
2022-08-28T20:27:41.686Z,98451.38
2022-08-28T20:30:10.904Z,98451.56
2022-08-28T20:32:40.163Z,98459.03
2022-08-28T20:35:12.079Z,98461.59
2022-08-28T20:37:44.842Z,98464.72
2022-08-28T20:40:17.360Z,98467.25
2022-08-28T20:42:46.398Z,98469.97
2022-08-28T20:45:18.325Z,98474.31
2022-08-28T20:47:46.496Z,98467.16
2022-08-28T20:50:14.271Z,98464.38
2022-08-28T20:52:41.394Z,98461.91
2022-08-28T20:55:08.692Z,98466.00
2022-08-28T20:57:35.276Z,98465.53
2022-08-28T21:00:05.680Z,98464.00
2022-08-28T21:02:33.051Z,98463.25
2022-08-28T21:04:59.934Z,98466.16
2022-08-28T21:07:27.213Z,98470.81
2022-08-28T21:10:06.137Z,98465.38
2022-08-28T21:12:38.730Z,98473.25
2022-08-28T21:15:07.588Z,98470.63
2022-08-28T21:17:34.453Z,98469.16
2022-08-28T21:20:04.707Z,98468.94
2022-08-28T21:22:33.001Z,98475.97
2022-08-28T21:25:02.311Z,98479.88
2022-08-28T21:27:28.952Z,98472.69
2022-08-28T21:29:58.251Z,98468.84
2022-08-28T21:32:25.980Z,98475.13
2022-08-28T21:34:53.089Z,98484.69
2022-08-28T21:37:20.192Z,98477.75
2022-08-28T21:39:46.819Z,98475.88
2022-08-28T21:42:13.690Z,98476.50
2022-08-28T21:44:40.795Z,98484.28
2022-08-28T21:47:17.926Z,98485.75
2022-08-28T21:49:47.931Z,98485.84
2022-08-28T21:52:14.546Z,98490.63
2022-08-28T21:54:41.145Z,98490.44
2022-08-28T21:57:07.755Z,98492.63
2022-08-28T21:59:38.084Z,98485.63
2022-08-28T22:02:05.338Z,98487.94
2022-08-28T22:04:32.036Z,98492.53
2022-08-28T22:06:58.679Z,98488.91
2022-08-28T22:09:25.337Z,98494.66
2022-08-28T22:11:51.857Z,98489.00
2022-08-28T22:14:18.443Z,98486.09
2022-08-28T22:16:45.126Z,98486.69
2022-08-28T22:19:11.790Z,98490.59
2022-08-28T22:21:56.734Z,98481.19
2022-08-28T22:24:23.670Z,98496.44
2022-08-28T22:26:50.392Z,98495.41
2022-08-28T22:29:24.280Z,98492.69
2022-08-28T22:31:50.966Z,98498.41
2022-08-28T22:34:17.685Z,98494.34
2022-08-28T22:36:44.312Z,98494.88
2022-08-28T22:39:10.945Z,98498.03
2022-08-28T22:41:37.675Z,98492.88
2022-08-28T22:44:04.694Z,98500.53
2022-08-28T22:46:31.247Z,98493.94
2022-08-28T22:49:02.889Z,98495.94
2022-08-28T22:51:29.456Z,98494.47
2022-08-28T22:53:56.112Z,98498.13
2022-08-28T22:56:22.735Z,98495.94
2022-08-28T22:58:49.331Z,98501.03
2022-08-28T23:01:22.839Z,98499.28
2022-08-28T23:03:50.004Z,98503.97
2022-08-28T23:06:17.113Z,98504.19
2022-08-28T23:08:43.828Z,98502.31
2022-08-28T23:11:10.853Z,98501.78
2022-08-28T23:13:37.984Z,98511.06
2022-08-28T23:16:05.147Z,98508.75
2022-08-28T23:18:46.340Z,98510.13
2022-08-28T23:21:19.755Z,98503.34
2022-08-28T23:23:46.620Z,98499.38
2022-08-28T23:26:14.439Z,98504.53
2022-08-28T23:28:41.334Z,98503.63
2022-08-28T23:31:08.024Z,98501.66
2022-08-28T23:33:34.595Z,98506.16
2022-08-28T23:36:02.416Z,98504.44
2022-08-28T23:38:29.028Z,98499.72
2022-08-28T23:40:55.841Z,98498.03
2022-08-28T23:43:23.585Z,98490.41
2022-08-28T23:45:51.898Z,98494.41
2022-08-28T23:48:18.647Z,98489.63
2022-08-28T23:50:45.345Z,98493.94
2022-08-28T23:53:12.099Z,98489.22
2022-08-28T23:55:38.805Z,98484.53
2022-08-28T23:58:06.941Z,98482.47
